Terminal Aerodrome Forecast
Issued by NWS Wakefield, VA

Home | Current Version | Previous Version | Text Only | Print | Product List | Glossary On
Versions: 1 2 3 4 5 6 7 8 9 10 11 12 13 14 15 16 17 18 19 20 21 22 23 24 25 26 27 28 29 30 31 32
000
FTUS41 KAKQ 050224 AAB
TAFSBY
TAF AMD
KSBY 050224Z 0502/0524 05011KT P6SM OVC007
      TEMPO 0502/0505 OVC012
     FM050700 05008KT 4SM BR OVC005
     FM051000 04006KT 2SM BR OVC003
     FM051400 04009KT 5SM BR OVC005
     FM051800 02011G18KT P6SM OVC008=

USA.gov is the U.S. government's official web portal to all federal, state and local government web resources and services.